ADDS METAR Data

Data at: 1825 UTC 20 Jul 2018

METAR for:KEWB (New Bedford Rgnl, MA, US)
Text:KEWB 201753Z 15007KT 10SM SCT065 28/14 A3016 RMK AO2 SLP211 T02830139 10289 20217 58006
Temperature: 28.3°C ( 83°F)
Dewpoint: 13.9°C ( 57°F) [RH = 41%]
Pressure (altimeter):30.16 inches Hg (1021.4 mb) [Sea level pressure: 1021.1 mb]
Winds:from the SSE (150 degrees) at 8 MPH (7 knots; 3.6 m/s)
Visibility:10 or more sm (16+ km)
Ceiling:at least 12,000 feet AGL
Clouds: scattered clouds at 6500 feet AGL